sensor_id;sensor_type;location;lat;lon;timestamp;temperature;humidity
8882;DHT22;4477;48.736;9.176;2023-12-20T00:01:11;5.10;99.90
8882;DHT22;4477;48.736;9.176;2023-12-20T00:03:38;5.00;99.90
8882;DHT22;4477;48.736;9.176;2023-12-20T00:06:05;5.10;99.90
8882;DHT22;4477;48.736;9.176;2023-12-20T00:08:33;5.00;99.90
8882;DHT22;4477;48.736;9.176;2023-12-20T00:11:00;5.10;99.90
8882;DHT22;4477;48.736;9.176;2023-12-20T00:13:29;5.00;99.90
8882;DHT22;4477;48.736;9.176;2023-12-20T00:15:55;5.00;99.90
8882;DHT22;4477;48.736;9.176;2023-12-20T00:18:23;5.10;99.90
8882;DHT22;4477;48.736;9.176;2023-12-20T00:20:50;5.10;99.90
8882;DHT22;4477;48.736;9.176;2023-12-20T00:23:17;5.10;99.90
8882;DHT22;4477;48.736;9.176;2023-12-20T00:25:44;5.00;99.90
8882;DHT22;4477;48.736;9.176;2023-12-20T00:28:12;5.10;99.90
8882;DHT22;4477;48.736;9.176;2023-12-20T00:30:41;5.10;99.90
8882;DHT22;4477;48.736;9.176;2023-12-20T00:33:08;5.00;99.90
8882;DHT22;4477;48.736;9.176;2023-12-20T00:35:35;5.00;99.90
8882;DHT22;4477;48.736;9.176;2023-12-20T00:38:02;4.90;99.90
8882;DHT22;4477;48.736;9.176;2023-12-20T00:40:30;4.80;99.90
8882;DHT22;4477;48.736;9.176;2023-12-20T00:42:57;4.80;99.90
8882;DHT22;4477;48.736;9.176;2023-12-20T00:45:24;4.80;99.90
8882;DHT22;4477;48.736;9.176;2023-12-20T00:47:53;4.80;99.90
8882;DHT22;4477;48.736;9.176;2023-12-20T00:50:24;4.80;99.90
8882;DHT22;4477;48.736;9.176;2023-12-20T00:53:07;4.70;99.90
8882;DHT22;4477;48.736;9.176;2023-12-20T00:55:38;4.60;99.90
8882;DHT22;4477;48.736;9.176;2023-12-20T00:58:20;4.50;99.90
8882;DHT22;4477;48.736;9.176;2023-12-20T01:00:47;4.50;99.90
8882;DHT22;4477;48.736;9.176;2023-12-20T01:03:16;4.50;99.90
8882;DHT22;4477;48.736;9.176;2023-12-20T01:05:43;4.50;99.90
8882;DHT22;4477;48.736;9.176;2023-12-20T01:08:10;4.40;99.90
8882;DHT22;4477;48.736;9.176;2023-12-20T01:10:38;4.40;99.90
8882;DHT22;4477;48.736;9.176;2023-12-20T01:13:05;4.40;99.90
8882;DHT22;4477;48.736;9.176;2023-12-20T01:15:34;4.40;99.90
8882;DHT22;4477;48.736;9.176;2023-12-20T01:18:01;4.40;99.90
8882;DHT22;4477;48.736;9.176;2023-12-20T01:20:29;4.40;99.90
8882;DHT22;4477;48.736;9.176;2023-12-20T01:22:56;4.40;99.90
8882;DHT22;4477;48.736;9.176;2023-12-20T01:25:23;4.30;99.90
8882;DHT22;4477;48.736;9.176;2023-12-20T01:27:50;4.30;99.90
8882;DHT22;4477;48.736;9.176;2023-12-20T01:30:17;4.30;99.90
8882;DHT22;4477;48.736;9.176;2023-12-20T01:32:44;4.30;99.90
8882;DHT22;4477;48.736;9.176;2023-12-20T01:35:10;4.30;99.90
8882;DHT22;4477;48.736;9.176;2023-12-20T01:37:40;4.30;99.90
8882;DHT22;4477;48.736;9.176;2023-12-20T01:40:08;4.20;99.90
8882;DHT22;4477;48.736;9.176;2023-12-20T01:42:35;4.20;99.90
8882;DHT22;4477;48.736;9.176;2023-12-20T01:45:01;4.20;99.90
8882;DHT22;4477;48.736;9.176;2023-12-20T01:47:29;4.20;99.90
8882;DHT22;4477;48.736;9.176;2023-12-20T01:49:56;4.20;99.90
8882;DHT22;4477;48.736;9.176;2023-12-20T01:52:24;4.20;99.90
8882;DHT22;4477;48.736;9.176;2023-12-20T01:54:53;4.20;99.90
8882;DHT22;4477;48.736;9.176;2023-12-20T01:57:26;4.20;99.90
8882;DHT22;4477;48.736;9.176;2023-12-20T01:59:53;4.20;99.90
8882;DHT22;4477;48.736;9.176;2023-12-20T02:02:20;4.20;99.90
8882;DHT22;4477;48.736;9.176;2023-12-20T02:04:47;4.20;99.90
8882;DHT22;4477;48.736;9.176;2023-12-20T02:07:14;4.20;99.90
8882;DHT22;4477;48.736;9.176;2023-12-20T02:09:41;4.20;99.90
8882;DHT22;4477;48.736;9.176;2023-12-20T02:12:09;4.10;99.90
8882;DHT22;4477;48.736;9.176;2023-12-20T02:14:36;4.20;99.90
8882;DHT22;4477;48.736;9.176;2023-12-20T02:17:03;4.20;99.90
8882;DHT22;4477;48.736;9.176;2023-12-20T02:19:29;4.10;99.90
8882;DHT22;4477;48.736;9.176;2023-12-20T02:22:08;4.20;99.90
8882;DHT22;4477;48.736;9.176;2023-12-20T02:24:35;4.20;99.90
8882;DHT22;4477;48.736;9.176;2023-12-20T02:27:03;4.20;99.90
8882;DHT22;4477;48.736;9.176;2023-12-20T02:29:33;4.20;99.90
8882;DHT22;4477;48.736;9.176;2023-12-20T02:32:00;4.20;99.90
8882;DHT22;4477;48.736;9.176;2023-12-20T02:34:26;4.20;99.90
8882;DHT22;4477;48.736;9.176;2023-12-20T02:36:53;4.30;99.90
8882;DHT22;4477;48.736;9.176;2023-12-20T02:39:22;4.20;99.90
8882;DHT22;4477;48.736;9.176;2023-12-20T02:41:49;4.30;99.90
8882;DHT22;4477;48.736;9.176;2023-12-20T02:44:16;4.30;99.90
8882;DHT22;4477;48.736;9.176;2023-12-20T02:46:43;4.30;99.90
8882;DHT22;4477;48.736;9.176;2023-12-20T02:49:10;4.30;99.90
8882;DHT22;4477;48.736;9.176;2023-12-20T02:51:36;4.20;99.90
8882;DHT22;4477;48.736;9.176;2023-12-20T02:54:04;4.20;99.90
8882;DHT22;4477;48.736;9.176;2023-12-20T02:56:33;4.30;99.90
8882;DHT22;4477;48.736;9.176;2023-12-20T02:59:00;4.20;99.90
8882;DHT22;4477;48.736;9.176;2023-12-20T03:01:28;4.20;99.90
8882;DHT22;4477;48.736;9.176;2023-12-20T03:03:55;4.10;99.90
8882;DHT22;4477;48.736;9.176;2023-12-20T03:06:22;4.10;99.90
8882;DHT22;4477;48.736;9.176;2023-12-20T03:08:49;4.10;99.90
8882;DHT22;4477;48.736;9.176;2023-12-20T03:11:16;4.10;99.90
8882;DHT22;4477;48.736;9.176;2023-12-20T03:13:44;4.10;99.90
8882;DHT22;4477;48.736;9.176;2023-12-20T03:16:11;4.10;99.90
8882;DHT22;4477;48.736;9.176;2023-12-20T03:18:38;4.10;99.90
8882;DHT22;4477;48.736;9.176;2023-12-20T03:21:05;4.10;99.90
8882;DHT22;4477;48.736;9.176;2023-12-20T03:23:32;4.10;99.90
8882;DHT22;4477;48.736;9.176;2023-12-20T03:25:59;4.10;99.90
8882;DHT22;4477;48.736;9.176;2023-12-20T03:28:27;4.10;99.90
8882;DHT22;4477;48.736;9.176;2023-12-20T03:30:55;4.10;99.90
8882;DHT22;4477;48.736;9.176;2023-12-20T03:33:22;4.10;99.90
8882;DHT22;4477;48.736;9.176;2023-12-20T03:35:49;4.10;99.90
8882;DHT22;4477;48.736;9.176;2023-12-20T03:38:16;4.10;99.90
8882;DHT22;4477;48.736;9.176;2023-12-20T03:40:43;4.10;99.90
8882;DHT22;4477;48.736;9.176;2023-12-20T03:43:09;4.10;99.90
8882;DHT22;4477;48.736;9.176;2023-12-20T03:45:36;4.10;99.90
8882;DHT22;4477;48.736;9.176;2023-12-20T03:48:05;4.10;99.90
8882;DHT22;4477;48.736;9.176;2023-12-20T03:50:32;4.10;99.90
8882;DHT22;4477;48.736;9.176;2023-12-20T03:52:59;4.10;99.90
8882;DHT22;4477;48.736;9.176;2023-12-20T03:55:26;4.10;99.90
8882;DHT22;4477;48.736;9.176;2023-12-20T03:57:53;4.00;99.90
8882;DHT22;4477;48.736;9.176;2023-12-20T04:00:20;4.00;99.90
8882;DHT22;4477;48.736;9.176;2023-12-20T04:02:47;4.00;99.90
8882;DHT22;4477;48.736;9.176;2023-12-20T04:05:15;4.00;99.90
8882;DHT22;4477;48.736;9.176;2023-12-20T04:07:42;3.90;99.90
8882;DHT22;4477;48.736;9.176;2023-12-20T04:10:09;3.90;99.90
8882;DHT22;4477;48.736;9.176;2023-12-20T04:12:36;3.90;99.90
8882;DHT22;4477;48.736;9.176;2023-12-20T04:15:03;3.90;99.90
8882;DHT22;4477;48.736;9.176;2023-12-20T04:17:34;3.90;99.90
8882;DHT22;4477;48.736;9.176;2023-12-20T04:20:03;3.90;99.90
8882;DHT22;4477;48.736;9.176;2023-12-20T04:22:31;3.80;99.90
8882;DHT22;4477;48.736;9.176;2023-12-20T04:24:58;3.80;99.90
8882;DHT22;4477;48.736;9.176;2023-12-20T04:27:25;3.80;99.90
8882;DHT22;4477;48.736;9.176;2023-12-20T04:29:52;3.80;99.90
8882;DHT22;4477;48.736;9.176;2023-12-20T04:32:19;3.80;99.90
8882;DHT22;4477;48.736;9.176;2023-12-20T04:34:46;3.80;99.90
8882;DHT22;4477;48.736;9.176;2023-12-20T04:37:12;3.80;99.90
8882;DHT22;4477;48.736;9.176;2023-12-20T04:39:41;3.80;99.90
8882;DHT22;4477;48.736;9.176;2023-12-20T04:42:08;3.80;99.90
8882;DHT22;4477;48.736;9.176;2023-12-20T04:44:35;3.70;99.90
8882;DHT22;4477;48.736;9.176;2023-12-20T04:47:01;3.80;99.90
8882;DHT22;4477;48.736;9.176;2023-12-20T04:49:28;3.70;99.90
8882;DHT22;4477;48.736;9.176;2023-12-20T04:51:55;3.70;99.90
8882;DHT22;4477;48.736;9.176;2023-12-20T04:54:22;3.80;99.90
8882;DHT22;4477;48.736;9.176;2023-12-20T04:56:51;3.80;99.90
8882;DHT22;4477;48.736;9.176;2023-12-20T04:59:17;3.80;99.90
8882;DHT22;4477;48.736;9.176;2023-12-20T05:01:44;3.80;99.90
8882;DHT22;4477;48.736;9.176;2023-12-20T05:04:11;3.80;99.90
8882;DHT22;4477;48.736;9.176;2023-12-20T05:06:38;3.70;99.90
8882;DHT22;4477;48.736;9.176;2023-12-20T05:09:05;3.80;99.90
8882;DHT22;4477;48.736;9.176;2023-12-20T05:11:32;3.70;99.90
8882;DHT22;4477;48.736;9.176;2023-12-20T05:14:00;3.70;99.90
8882;DHT22;4477;48.736;9.176;2023-12-20T05:16:27;3.70;99.90
8882;DHT22;4477;48.736;9.176;2023-12-20T05:18:53;3.80;99.90
8882;DHT22;4477;48.736;9.176;2023-12-20T05:21:21;3.80;99.90
8882;DHT22;4477;48.736;9.176;2023-12-20T05:23:49;3.80;99.90
8882;DHT22;4477;48.736;9.176;2023-12-20T05:26:16;3.70;99.90
8882;DHT22;4477;48.736;9.176;2023-12-20T05:28:43;3.70;99.90
8882;DHT22;4477;48.736;9.176;2023-12-20T05:31:11;3.80;99.90
8882;DHT22;4477;48.736;9.176;2023-12-20T05:33:38;3.80;99.90
8882;DHT22;4477;48.736;9.176;2023-12-20T05:36:05;3.80;99.90
8882;DHT22;4477;48.736;9.176;2023-12-20T05:38:36;3.80;99.90
8882;DHT22;4477;48.736;9.176;2023-12-20T05:41:03;3.80;99.90
8882;DHT22;4477;48.736;9.176;2023-12-20T05:43:30;3.80;99.90
8882;DHT22;4477;48.736;9.176;2023-12-20T05:45:57;3.80;99.90
8882;DHT22;4477;48.736;9.176;2023-12-20T05:48:25;3.80;99.90
8882;DHT22;4477;48.736;9.176;2023-12-20T05:50:53;3.80;99.90
8882;DHT22;4477;48.736;9.176;2023-12-20T05:53:20;3.80;99.90
8882;DHT22;4477;48.736;9.176;2023-12-20T05:55:46;3.80;99.90
8882;DHT22;4477;48.736;9.176;2023-12-20T05:58:13;3.80;99.90
8882;DHT22;4477;48.736;9.176;2023-12-20T06:00:40;3.80;99.90
8882;DHT22;4477;48.736;9.176;2023-12-20T06:03:07;3.80;99.90
8882;DHT22;4477;48.736;9.176;2023-12-20T06:05:35;3.80;99.90
8882;DHT22;4477;48.736;9.176;2023-12-20T06:08:02;3.80;99.90
8882;DHT22;4477;48.736;9.176;2023-12-20T06:10:29;3.80;99.90
8882;DHT22;4477;48.736;9.176;2023-12-20T06:12:56;3.80;99.90
8882;DHT22;4477;48.736;9.176;2023-12-20T06:15:24;3.80;99.90
8882;DHT22;4477;48.736;9.176;2023-12-20T06:17:51;3.80;99.90
8882;DHT22;4477;48.736;9.176;2023-12-20T06:20:18;3.80;99.90
8882;DHT22;4477;48.736;9.176;2023-12-20T06:22:46;3.80;99.90
8882;DHT22;4477;48.736;9.176;2023-12-20T06:25:13;3.80;99.90
8882;DHT22;4477;48.736;9.176;2023-12-20T06:27:40;3.80;99.90
8882;DHT22;4477;48.736;9.176;2023-12-20T06:30:07;3.80;99.90
8882;DHT22;4477;48.736;9.176;2023-12-20T06:32:35;3.80;99.90
8882;DHT22;4477;48.736;9.176;2023-12-20T06:35:04;3.80;99.90
8882;DHT22;4477;48.736;9.176;2023-12-20T06:37:31;3.80;99.90
8882;DHT22;4477;48.736;9.176;2023-12-20T06:39:59;3.80;99.90
8882;DHT22;4477;48.736;9.176;2023-12-20T06:42:26;3.80;99.90
8882;DHT22;4477;48.736;9.176;2023-12-20T06:44:53;3.80;99.90
8882;DHT22;4477;48.736;9.176;2023-12-20T06:47:20;3.80;99.90
8882;DHT22;4477;48.736;9.176;2023-12-20T06:49:47;3.90;99.90
8882;DHT22;4477;48.736;9.176;2023-12-20T06:52:14;3.80;99.90
8882;DHT22;4477;48.736;9.176;2023-12-20T06:54:40;3.80;99.90
8882;DHT22;4477;48.736;9.176;2023-12-20T06:57:09;3.80;99.90
8882;DHT22;4477;48.736;9.176;2023-12-20T06:59:38;3.90;99.90
8882;DHT22;4477;48.736;9.176;2023-12-20T07:02:05;3.90;99.90
8882;DHT22;4477;48.736;9.176;2023-12-20T07:04:32;3.90;99.90
8882;DHT22;4477;48.736;9.176;2023-12-20T07:06:59;3.90;99.90
8882;DHT22;4477;48.736;9.176;2023-12-20T07:09:26;3.90;99.90
8882;DHT22;4477;48.736;9.176;2023-12-20T07:11:53;3.80;99.90
8882;DHT22;4477;48.736;9.176;2023-12-20T07:14:21;3.90;99.90
8882;DHT22;4477;48.736;9.176;2023-12-20T07:16:48;3.80;99.90
8882;DHT22;4477;48.736;9.176;2023-12-20T07:19:15;3.80;99.90
8882;DHT22;4477;48.736;9.176;2023-12-20T07:21:42;3.80;99.90
8882;DHT22;4477;48.736;9.176;2023-12-20T07:24:09;3.80;99.90
8882;DHT22;4477;48.736;9.176;2023-12-20T07:26:36;3.80;99.90
8882;DHT22;4477;48.736;9.176;2023-12-20T07:29:04;3.80;99.90
8882;DHT22;4477;48.736;9.176;2023-12-20T07:31:33;3.90;99.90
8882;DHT22;4477;48.736;9.176;2023-12-20T07:34:00;3.90;99.90
8882;DHT22;4477;48.736;9.176;2023-12-20T07:36:27;4.00;99.90
8882;DHT22;4477;48.736;9.176;2023-12-20T07:38:54;4.00;99.90
8882;DHT22;4477;48.736;9.176;2023-12-20T07:41:21;4.00;99.90
8882;DHT22;4477;48.736;9.176;2023-12-20T07:43:49;4.00;99.90
8882;DHT22;4477;48.736;9.176;2023-12-20T07:46:16;4.00;99.90
8882;DHT22;4477;48.736;9.176;2023-12-20T07:48:45;4.00;99.90
8882;DHT22;4477;48.736;9.176;2023-12-20T07:51:12;3.90;99.90
8882;DHT22;4477;48.736;9.176;2023-12-20T07:53:38;3.80;99.90
8882;DHT22;4477;48.736;9.176;2023-12-20T07:56:14;3.80;99.90
8882;DHT22;4477;48.736;9.176;2023-12-20T07:58:41;3.70;99.90
8882;DHT22;4477;48.736;9.176;2023-12-20T08:01:07;3.60;99.90
8882;DHT22;4477;48.736;9.176;2023-12-20T08:03:34;3.60;99.90
8882;DHT22;4477;48.736;9.176;2023-12-20T08:06:04;3.70;99.90
8882;DHT22;4477;48.736;9.176;2023-12-20T08:08:31;3.70;99.90
8882;DHT22;4477;48.736;9.176;2023-12-20T08:10:58;3.70;99.90
8882;DHT22;4477;48.736;9.176;2023-12-20T08:13:26;3.70;99.90
8882;DHT22;4477;48.736;9.176;2023-12-20T08:15:53;3.70;99.90
8882;DHT22;4477;48.736;9.176;2023-12-20T08:18:21;3.70;99.90
8882;DHT22;4477;48.736;9.176;2023-12-20T08:20:49;3.70;99.90
8882;DHT22;4477;48.736;9.176;2023-12-20T08:23:19;3.70;99.90
8882;DHT22;4477;48.736;9.176;2023-12-20T08:25:47;3.60;99.90
8882;DHT22;4477;48.736;9.176;2023-12-20T08:28:14;3.60;99.90
8882;DHT22;4477;48.736;9.176;2023-12-20T08:30:41;3.60;99.90
8882;DHT22;4477;48.736;9.176;2023-12-20T08:33:08;3.60;99.90
8882;DHT22;4477;48.736;9.176;2023-12-20T08:35:38;3.60;99.90
8882;DHT22;4477;48.736;9.176;2023-12-20T08:38:05;3.60;99.90
8882;DHT22;4477;48.736;9.176;2023-12-20T08:40:33;3.60;99.90
8882;DHT22;4477;48.736;9.176;2023-12-20T08:43:01;3.60;99.90
8882;DHT22;4477;48.736;9.176;2023-12-20T08:45:28;3.60;99.90
8882;DHT22;4477;48.736;9.176;2023-12-20T08:47:55;3.70;99.90
8882;DHT22;4477;48.736;9.176;2023-12-20T08:50:22;3.70;99.90
8882;DHT22;4477;48.736;9.176;2023-12-20T08:52:49;3.80;99.90
8882;DHT22;4477;48.736;9.176;2023-12-20T08:55:16;3.80;99.90
8882;DHT22;4477;48.736;9.176;2023-12-20T08:57:45;3.60;99.90
8882;DHT22;4477;48.736;9.176;2023-12-20T09:00:13;3.40;99.90
8882;DHT22;4477;48.736;9.176;2023-12-20T09:02:40;3.30;99.90
8882;DHT22;4477;48.736;9.176;2023-12-20T09:05:07;3.20;99.90
8882;DHT22;4477;48.736;9.176;2023-12-20T09:07:34;3.10;99.90
8882;DHT22;4477;48.736;9.176;2023-12-20T09:10:01;3.10;99.90
8882;DHT22;4477;48.736;9.176;2023-12-20T09:12:29;3.50;99.90
8882;DHT22;4477;48.736;9.176;2023-12-20T09:14:57;3.60;99.90
8882;DHT22;4477;48.736;9.176;2023-12-20T09:17:24;4.70;99.90
8882;DHT22;4477;48.736;9.176;2023-12-20T09:19:51;5.80;99.90
8882;DHT22;4477;48.736;9.176;2023-12-20T09:22:19;6.50;99.90
8882;DHT22;4477;48.736;9.176;2023-12-20T09:24:46;7.10;99.90
8882;DHT22;4477;48.736;9.176;2023-12-20T09:27:13;7.50;99.90
8882;DHT22;4477;48.736;9.176;2023-12-20T09:29:40;7.30;99.90
8882;DHT22;4477;48.736;9.176;2023-12-20T09:32:08;7.50;99.90
8882;DHT22;4477;48.736;9.176;2023-12-20T09:34:35;7.40;99.90
8882;DHT22;4477;48.736;9.176;2023-12-20T09:37:03;7.90;99.80
8882;DHT22;4477;48.736;9.176;2023-12-20T09:39:31;8.10;97.70
8882;DHT22;4477;48.736;9.176;2023-12-20T09:42:01;8.40;96.80
8882;DHT22;4477;48.736;9.176;2023-12-20T09:44:28;8.50;95.40
8882;DHT22;4477;48.736;9.176;2023-12-20T09:46:56;8.60;94.50
8882;DHT22;4477;48.736;9.176;2023-12-20T09:49:25;8.40;93.80
8882;DHT22;4477;48.736;9.176;2023-12-20T09:51:54;8.60;92.40
8882;DHT22;4477;48.736;9.176;2023-12-20T09:54:22;8.60;91.00
8882;DHT22;4477;48.736;9.176;2023-12-20T09:56:49;8.70;90.70
8882;DHT22;4477;48.736;9.176;2023-12-20T09:59:16;8.80;90.90
8882;DHT22;4477;48.736;9.176;2023-12-20T10:01:43;8.70;89.30
8882;DHT22;4477;48.736;9.176;2023-12-20T10:04:12;9.00;87.60
8882;DHT22;4477;48.736;9.176;2023-12-20T10:06:42;9.20;88.20
8882;DHT22;4477;48.736;9.176;2023-12-20T10:09:10;9.30;85.90
8882;DHT22;4477;48.736;9.176;2023-12-20T10:11:37;9.10;84.00
8882;DHT22;4477;48.736;9.176;2023-12-20T10:14:05;9.10;84.60
8882;DHT22;4477;48.736;9.176;2023-12-20T10:16:33;9.20;83.00
8882;DHT22;4477;48.736;9.176;2023-12-20T10:19:01;9.30;82.40
8882;DHT22;4477;48.736;9.176;2023-12-20T10:21:28;10.10;82.20
8882;DHT22;4477;48.736;9.176;2023-12-20T10:23:57;10.60;79.40
8882;DHT22;4477;48.736;9.176;2023-12-20T10:26:25;9.60;80.20
8882;DHT22;4477;48.736;9.176;2023-12-20T10:28:54;8.10;84.60
8882;DHT22;4477;48.736;9.176;2023-12-20T10:31:28;7.00;90.50
8882;DHT22;4477;48.736;9.176;2023-12-20T10:33:56;6.20;90.70
8882;DHT22;4477;48.736;9.176;2023-12-20T10:36:25;5.70;92.20
8882;DHT22;4477;48.736;9.176;2023-12-20T10:38:54;5.40;93.50
8882;DHT22;4477;48.736;9.176;2023-12-20T10:41:27;5.30;95.60
8882;DHT22;4477;48.736;9.176;2023-12-20T10:43:56;5.20;94.90
8882;DHT22;4477;48.736;9.176;2023-12-20T10:46:26;5.10;95.20
8882;DHT22;4477;48.736;9.176;2023-12-20T10:48:54;5.10;95.60
8882;DHT22;4477;48.736;9.176;2023-12-20T10:51:22;5.10;95.60
8882;DHT22;4477;48.736;9.176;2023-12-20T10:53:50;5.00;95.20
8882;DHT22;4477;48.736;9.176;2023-12-20T10:56:17;5.00;96.70
8882;DHT22;4477;48.736;9.176;2023-12-20T10:58:50;4.90;95.50
8882;DHT22;4477;48.736;9.176;2023-12-20T11:01:18;4.90;97.20
8882;DHT22;4477;48.736;9.176;2023-12-20T11:03:50;5.10;96.50
8882;DHT22;4477;48.736;9.176;2023-12-20T11:06:33;5.00;97.00
8882;DHT22;4477;48.736;9.176;2023-12-20T11:09:12;5.00;96.50
8882;DHT22;4477;48.736;9.176;2023-12-20T11:12:01;4.90;96.90
8882;DHT22;4477;48.736;9.176;2023-12-20T11:14:35;4.90;98.20
8882;DHT22;4477;48.736;9.176;2023-12-20T11:17:09;4.90;97.40
8882;DHT22;4477;48.736;9.176;2023-12-20T11:19:38;4.80;97.80
8882;DHT22;4477;48.736;9.176;2023-12-20T11:22:09;4.70;98.10
8882;DHT22;4477;48.736;9.176;2023-12-20T11:24:44;4.60;98.30
8882;DHT22;4477;48.736;9.176;2023-12-20T11:27:13;4.60;99.10
8882;DHT22;4477;48.736;9.176;2023-12-20T11:29:41;4.70;97.20
8882;DHT22;4477;48.736;9.176;2023-12-20T11:32:28;4.80;98.20
8882;DHT22;4477;48.736;9.176;2023-12-20T11:34:56;4.80;98.10
8882;DHT22;4477;48.736;9.176;2023-12-20T11:37:29;4.80;98.20
8882;DHT22;4477;48.736;9.176;2023-12-20T11:40:00;4.70;97.00
8882;DHT22;4477;48.736;9.176;2023-12-20T11:42:27;4.70;97.00
8882;DHT22;4477;48.736;9.176;2023-12-20T11:44:56;4.80;94.60
8882;DHT22;4477;48.736;9.176;2023-12-20T11:47:23;4.80;95.00
8882;DHT22;4477;48.736;9.176;2023-12-20T11:49:50;4.80;95.10
8882;DHT22;4477;48.736;9.176;2023-12-20T11:52:17;4.90;95.80
8882;DHT22;4477;48.736;9.176;2023-12-20T11:54:44;5.00;94.50
8882;DHT22;4477;48.736;9.176;2023-12-20T11:57:11;5.00;93.70
8882;DHT22;4477;48.736;9.176;2023-12-20T11:59:40;4.90;92.80
8882;DHT22;4477;48.736;9.176;2023-12-20T12:02:11;4.70;93.20
8882;DHT22;4477;48.736;9.176;2023-12-20T12:04:38;4.60;94.00
8882;DHT22;4477;48.736;9.176;2023-12-20T12:07:05;4.50;93.90
8882;DHT22;4477;48.736;9.176;2023-12-20T12:09:31;4.50;93.80
8882;DHT22;4477;48.736;9.176;2023-12-20T12:11:59;4.40;94.10
8882;DHT22;4477;48.736;9.176;2023-12-20T12:14:26;4.40;93.70
8882;DHT22;4477;48.736;9.176;2023-12-20T12:16:53;4.30;95.50
8882;DHT22;4477;48.736;9.176;2023-12-20T12:19:22;4.40;95.20
8882;DHT22;4477;48.736;9.176;2023-12-20T12:21:49;4.30;95.70
8882;DHT22;4477;48.736;9.176;2023-12-20T12:24:20;4.40;94.80
8882;DHT22;4477;48.736;9.176;2023-12-20T12:26:50;4.50;94.20
8882;DHT22;4477;48.736;9.176;2023-12-20T12:29:17;4.70;93.80
8882;DHT22;4477;48.736;9.176;2023-12-20T12:31:44;4.80;92.60
8882;DHT22;4477;48.736;9.176;2023-12-20T12:34:11;4.90;92.30
8882;DHT22;4477;48.736;9.176;2023-12-20T12:36:39;4.80;92.20
8882;DHT22;4477;48.736;9.176;2023-12-20T12:39:06;4.80;92.40
8882;DHT22;4477;48.736;9.176;2023-12-20T12:41:34;4.80;92.20
8882;DHT22;4477;48.736;9.176;2023-12-20T12:44:01;4.90;92.00
8882;DHT22;4477;48.736;9.176;2023-12-20T12:46:27;5.00;91.40
8882;DHT22;4477;48.736;9.176;2023-12-20T12:48:54;5.10;91.10
8882;DHT22;4477;48.736;9.176;2023-12-20T12:51:21;5.20;91.50
8882;DHT22;4477;48.736;9.176;2023-12-20T12:53:49;5.20;91.20
8882;DHT22;4477;48.736;9.176;2023-12-20T12:56:16;5.10;91.60
8882;DHT22;4477;48.736;9.176;2023-12-20T12:58:43;5.10;92.50
8882;DHT22;4477;48.736;9.176;2023-12-20T13:01:10;5.00;91.90
8882;DHT22;4477;48.736;9.176;2023-12-20T13:03:37;4.90;92.20
8882;DHT22;4477;48.736;9.176;2023-12-20T13:06:05;4.90;92.00
8882;DHT22;4477;48.736;9.176;2023-12-20T13:08:34;4.90;92.00
8882;DHT22;4477;48.736;9.176;2023-12-20T13:11:03;5.00;92.50
8882;DHT22;4477;48.736;9.176;2023-12-20T13:13:30;5.00;91.70
8882;DHT22;4477;48.736;9.176;2023-12-20T13:15:57;4.90;91.60
8882;DHT22;4477;48.736;9.176;2023-12-20T13:18:24;4.90;92.20
8882;DHT22;4477;48.736;9.176;2023-12-20T13:20:51;4.80;92.70
8882;DHT22;4477;48.736;9.176;2023-12-20T13:23:18;4.70;92.20
8882;DHT22;4477;48.736;9.176;2023-12-20T13:25:44;4.70;92.40
8882;DHT22;4477;48.736;9.176;2023-12-20T13:28:13;4.80;93.70
8882;DHT22;4477;48.736;9.176;2023-12-20T13:30:40;4.90;94.20
8882;DHT22;4477;48.736;9.176;2023-12-20T13:33:07;5.70;95.50
8882;DHT22;4477;48.736;9.176;2023-12-20T13:35:34;6.90;89.40
8882;DHT22;4477;48.736;9.176;2023-12-20T13:38:01;6.90;86.20
8882;DHT22;4477;48.736;9.176;2023-12-20T13:40:28;6.40;88.70
8882;DHT22;4477;48.736;9.176;2023-12-20T13:42:55;6.50;90.00
8882;DHT22;4477;48.736;9.176;2023-12-20T13:45:23;6.20;88.60
8882;DHT22;4477;48.736;9.176;2023-12-20T13:47:50;5.70;89.70
8882;DHT22;4477;48.736;9.176;2023-12-20T13:50:17;5.30;91.20
8882;DHT22;4477;48.736;9.176;2023-12-20T13:52:44;5.10;91.40
8882;DHT22;4477;48.736;9.176;2023-12-20T13:55:12;5.00;91.60
8882;DHT22;4477;48.736;9.176;2023-12-20T13:57:40;4.80;92.00
8882;DHT22;4477;48.736;9.176;2023-12-20T14:00:08;4.70;92.30
8882;DHT22;4477;48.736;9.176;2023-12-20T14:02:41;4.60;92.80
8882;DHT22;4477;48.736;9.176;2023-12-20T14:05:08;4.60;93.00
8882;DHT22;4477;48.736;9.176;2023-12-20T14:07:35;4.50;92.70
8882;DHT22;4477;48.736;9.176;2023-12-20T14:10:03;4.50;93.20
8882;DHT22;4477;48.736;9.176;2023-12-20T14:12:31;4.50;93.30
8882;DHT22;4477;48.736;9.176;2023-12-20T14:15:01;4.50;93.50
8882;DHT22;4477;48.736;9.176;2023-12-20T14:17:28;4.40;93.30
8882;DHT22;4477;48.736;9.176;2023-12-20T14:19:56;4.50;93.10
8882;DHT22;4477;48.736;9.176;2023-12-20T14:22:23;4.40;93.20
8882;DHT22;4477;48.736;9.176;2023-12-20T14:24:50;4.40;94.00
8882;DHT22;4477;48.736;9.176;2023-12-20T14:27:17;4.30;94.00
8882;DHT22;4477;48.736;9.176;2023-12-20T14:29:48;4.30;94.00
8882;DHT22;4477;48.736;9.176;2023-12-20T14:32:14;4.30;94.70
8882;DHT22;4477;48.736;9.176;2023-12-20T14:34:42;4.20;95.00
8882;DHT22;4477;48.736;9.176;2023-12-20T14:37:10;4.20;95.30
8882;DHT22;4477;48.736;9.176;2023-12-20T14:39:37;4.20;96.30
8882;DHT22;4477;48.736;9.176;2023-12-20T14:42:06;4.10;97.20
8882;DHT22;4477;48.736;9.176;2023-12-20T14:44:36;4.10;96.70
8882;DHT22;4477;48.736;9.176;2023-12-20T14:47:04;4.10;97.30
8882;DHT22;4477;48.736;9.176;2023-12-20T14:49:31;4.10;97.10
8882;DHT22;4477;48.736;9.176;2023-12-20T14:51:58;4.10;97.30
8882;DHT22;4477;48.736;9.176;2023-12-20T14:54:26;4.10;98.00
8882;DHT22;4477;48.736;9.176;2023-12-20T14:56:53;3.90;99.30
8882;DHT22;4477;48.736;9.176;2023-12-20T14:59:21;3.80;99.90
8882;DHT22;4477;48.736;9.176;2023-12-20T15:01:48;3.80;99.90
8882;DHT22;4477;48.736;9.176;2023-12-20T15:04:15;3.70;99.90
8882;DHT22;4477;48.736;9.176;2023-12-20T15:06:42;3.70;99.90
8882;DHT22;4477;48.736;9.176;2023-12-20T15:09:10;3.70;99.90
8882;DHT22;4477;48.736;9.176;2023-12-20T15:11:38;3.70;99.90
8882;DHT22;4477;48.736;9.176;2023-12-20T15:14:06;3.70;99.90
8882;DHT22;4477;48.736;9.176;2023-12-20T15:16:33;3.70;99.90
8882;DHT22;4477;48.736;9.176;2023-12-20T15:19:00;3.60;99.90
8882;DHT22;4477;48.736;9.176;2023-12-20T15:21:27;3.60;99.90
8882;DHT22;4477;48.736;9.176;2023-12-20T15:23:57;3.60;99.90
8882;DHT22;4477;48.736;9.176;2023-12-20T15:26:32;3.60;99.90
8882;DHT22;4477;48.736;9.176;2023-12-20T15:29:00;3.50;99.90
8882;DHT22;4477;48.736;9.176;2023-12-20T15:31:27;3.50;99.90
8882;DHT22;4477;48.736;9.176;2023-12-20T15:33:55;3.50;99.90
8882;DHT22;4477;48.736;9.176;2023-12-20T15:36:22;3.40;99.90
8882;DHT22;4477;48.736;9.176;2023-12-20T15:38:49;3.40;99.90
8882;DHT22;4477;48.736;9.176;2023-12-20T15:41:19;3.40;99.90
8882;DHT22;4477;48.736;9.176;2023-12-20T15:43:46;3.40;99.90
8882;DHT22;4477;48.736;9.176;2023-12-20T15:46:14;3.30;99.90
8882;DHT22;4477;48.736;9.176;2023-12-20T15:48:41;3.30;99.90
8882;DHT22;4477;48.736;9.176;2023-12-20T15:51:09;3.30;99.90
8882;DHT22;4477;48.736;9.176;2023-12-20T15:53:36;3.30;99.90
8882;DHT22;4477;48.736;9.176;2023-12-20T15:56:05;3.30;99.90
8882;DHT22;4477;48.736;9.176;2023-12-20T15:58:32;3.30;99.90
8882;DHT22;4477;48.736;9.176;2023-12-20T16:00:59;3.30;99.90
8882;DHT22;4477;48.736;9.176;2023-12-20T16:03:27;3.30;99.90
8882;DHT22;4477;48.736;9.176;2023-12-20T16:05:54;3.30;99.90
8882;DHT22;4477;48.736;9.176;2023-12-20T16:08:21;3.30;99.90
8882;DHT22;4477;48.736;9.176;2023-12-20T16:10:48;3.30;99.90
8882;DHT22;4477;48.736;9.176;2023-12-20T16:13:15;3.30;99.90
8882;DHT22;4477;48.736;9.176;2023-12-20T16:15:42;3.20;99.90
8882;DHT22;4477;48.736;9.176;2023-12-20T16:18:09;3.30;99.90
8882;DHT22;4477;48.736;9.176;2023-12-20T16:20:38;3.20;99.90